Terminal Aerodrome Forecast
Issued by NWS Charleston, WV

Current Version | Previous Version | Text Only | Print | Product List | Glossary Off
Versions: 1 2 3 4 5 6 7 8 9 10 11 12 13 14 15 16 17 18 19 20 21 22 23 24 25

000
FTUS41 KRLX 060858 AAA
TAFEKN
TAF AMD
KEKN 060858Z 0609/0706 00000KT 5SM SHRA BR OVC030
     FM061100 00000KT 2SM SHRA BR SCT001 OVC030
     FM061300 VRB03KT 5SM BR BKN015
     FM061700 25004KT 4SM SHRA VCTS OVC020CB
     FM070100 24003KT 5SM BR BKN015
     FM070500 00000KT 2SM BR BKN020=

USA.gov is the U.S. government's official web portal to all federal, state and local government web resources and services.